Time;durP1;ratioP1;P1;durP2;ratioP2;P2;SDS_P1;SDS_P2;PMS_P1;PMS_P2;Temp;Humidity;BMP_temperature;BMP_pressure;BME280_temperature;BME280_humidity;BME280_pressure;Samples;Min_cycle;Max_cycle;Signal;HPM_P1;HPM_P2
2021/11/30 00:00:03;;;;;;;18.58;11.38;;;1.60;99.90;;;;;;5055335;28;20025;-85
2021/11/30 00:02:29;;;;;;;16.45;10.98;;;1.60;99.90;;;;;;5056655;28;20172;-86
2021/11/30 00:04:55;;;;;;;16.85;10.88;;;1.50;99.90;;;;;;5052798;28;20033;-86
2021/11/30 00:07:21;;;;;;;18.45;11.68;;;1.30;99.90;;;;;;5056821;28;20393;-86
2021/11/30 00:12:21;;;;;;;15.77;11.10;;;1.30;99.90;;;;;;5056275;28;20540;-86
2021/11/30 00:14:51;;;;;;;18.85;11.82;;;1.20;99.90;;;;;;5056116;28;20100;-86
2021/11/30 00:17:18;;;;;;;19.48;11.85;;;1.20;1.00;;;;;;5056180;28;20403;-86
2021/11/30 00:19:44;;;;;;;19.13;12.13;;;1.20;1.00;;;;;;5052268;28;20025;-86
2021/11/30 00:22:11;;;;;;;19.20;12.20;;;1.20;1.00;;;;;;5058280;28;20386;-86
2021/11/30 00:24:37;;;;;;;14.93;11.40;;;1.10;1.00;;;;;;5055727;28;20039;-86
2021/11/30 00:27:05;;;;;;;17.95;12.07;;;1.10;99.90;;;;;;5056219;28;20100;-85
2021/11/30 00:29:31;;;;;;;18.60;11.23;;;1.20;1.00;;;;;;5054645;28;20496;-86
2021/11/30 00:31:57;;;;;;;15.50;10.82;;;1.70;1.00;;;;;;5051218;28;20064;-86
2021/11/30 00:34:22;;;;;;;15.73;10.48;;;1.20;1.00;;;;;;5055926;28;20477;-86
2021/11/30 00:36:48;;;;;;;14.50;10.70;;;1.10;1.00;;;;;;5056569;28;20116;-86
2021/11/30 00:39:14;;;;;;;14.57;10.15;;;1.00;1.00;;;;;;5055432;28;20481;-86
2021/11/30 00:41:45;;;;;;;15.75;10.40;;;0.90;1.00;;;;;;5056172;28;20048;-86
2021/11/30 00:44:14;;;;;;;16.20;10.82;;;0.90;1.00;;;;;;5054663;28;20388;-86
2021/11/30 00:46:41;;;;;;;17.23;10.93;;;0.90;1.00;;;;;;5052090;28;20037;-85
2021/11/30 00:49:10;;;;;;;15.05;10.55;;;0.80;1.00;;;;;;5057571;28;20032;-86
2021/11/30 00:51:38;;;;;;;14.30;10.88;;;0.70;1.00;;;;;;5055403;28;20037;-86
2021/11/30 00:54:07;;;;;;;15.65;11.00;;;0.70;1.00;;;;;;5055664;28;20400;-86
2021/11/30 00:56:37;;;;;;;15.25;11.02;;;0.70;1.00;;;;;;5055466;28;20035;-86
2021/11/30 00:59:03;;;;;;;16.30;10.75;;;0.70;1.00;;;;;;5053269;28;20491;-85
2021/11/30 01:01:30;;;;;;;17.58;10.75;;;0.60;1.00;;;;;;5054402;28;20049;-86
2021/11/30 01:03:56;;;;;;;16.13;10.77;;;0.70;1.00;;;;;;5057076;28;20107;-86
2021/11/30 01:06:22;;;;;;;15.43;10.75;;;0.70;1.00;;;;;;5055116;28;20516;-87
2021/11/30 01:08:47;;;;;;;17.33;11.63;;;0.70;1.00;;;;;;5053623;28;20058;-86
2021/11/30 01:11:13;;;;;;;16.38;11.23;;;0.70;1.00;;;;;;5053064;28;20034;-86
2021/11/30 01:13:39;;;;;;;15.68;11.50;;;0.60;1.00;;;;;;5051765;28;20393;-86
2021/11/30 01:16:05;;;;;;;15.20;11.02;;;0.60;1.00;;;;;;5057086;28;20071;-86
2021/11/30 01:18:31;;;;;;;15.77;10.50;;;0.70;1.00;;;;;;5054936;28;20372;-86
2021/11/30 01:20:58;;;;;;;16.40;10.82;;;0.60;1.00;;;;;;5055065;28;20108;-86
2021/11/30 01:23:26;;;;;;;15.25;10.55;;;0.50;1.00;;;;;;5054568;28;20025;-87
2021/11/30 01:25:52;;;;;;;16.25;10.50;;;0.50;1.00;;;;;;5051550;28;20026;-87
2021/11/30 01:28:18;;;;;;;17.25;11.00;;;0.40;1.00;;;;;;5056068;28;20532;-85
2021/11/30 01:30:44;;;;;;;15.48;11.18;;;0.40;1.00;;;;;;5054433;28;20039;-87
2021/11/30 01:33:10;;;;;;;20.15;11.18;;;0.50;1.00;;;;;;5054621;28;20033;-86
2021/11/30 01:35:35;;;;;;;16.70;11.43;;;0.50;1.00;;;;;;5046030;28;20097;-85
2021/11/30 01:38:01;;;;;;;19.33;12.20;;;0.50;1.00;;;;;;5052017;28;20032;-86
2021/11/30 01:40:28;;;;;;;16.60;11.73;;;0.30;1.00;;;;;;5053508;28;20021;-86
2021/11/30 01:42:57;;;;;;;19.98;12.43;;;0.30;1.00;;;;;;5056079;28;20467;-86
2021/11/30 01:51:01;;;;;;;21.13;12.60;;;0.30;1.00;;;;;;5024417;28;20147;-85
2021/11/30 01:53:26;;;;;;;18.58;12.70;;;0.30;1.00;;;;;;5025003;28;20041;-86
2021/11/30 01:55:53;;;;;;;17.45;11.98;;;0.30;1.00;;;;;;5025277;28;20038;-86
2021/11/30 01:58:20;;;;;;;21.23;12.77;;;0.30;1.00;;;;;;5012835;28;20017;-86
2021/11/30 02:00:46;;;;;;;17.92;12.57;;;0.20;1.00;;;;;;5025337;28;20553;-86
2021/11/30 02:03:12;;;;;;;20.35;13.13;;;0.20;1.00;;;;;;5025242;28;20061;-86
2021/11/30 02:05:40;;;;;;;23.05;13.32;;;0.20;1.00;;;;;;5032967;28;20444;-86
2021/11/30 02:08:07;;;;;;;18.65;12.45;;;0.20;1.00;;;;;;5044957;28;20033;-86
2021/11/30 02:10:34;;;;;;;17.42;11.82;;;0.20;1.00;;;;;;5047028;28;20574;-86
2021/11/30 02:13:01;;;;;;;18.98;11.80;;;0.20;1.00;;;;;;5047665;28;20156;-86
2021/11/30 02:15:27;;;;;;;19.13;11.60;;;0.10;1.00;;;;;;5044396;28;20194;-86
2021/11/30 02:17:59;;;;;;;16.60;12.07;;;0.10;1.00;;;;;;5044618;28;20044;-86
2021/11/30 02:20:25;;;;;;;26.35;13.98;;;0.10;1.00;;;;;;5044213;28;20134;-87
2021/11/30 02:22:54;;;;;;;22.48;13.63;;;0.10;1.00;;;;;;5045255;28;20505;-86
2021/11/30 02:25:21;;;;;;;23.25;14.57;;;0.10;1.00;;;;;;5048942;28;20040;-86
2021/11/30 02:27:47;;;;;;;20.98;14.10;;;0.10;1.00;;;;;;5046065;28;20032;-86
2021/11/30 02:30:13;;;;;;;19.98;13.23;;;0.10;1.00;;;;;;5052396;28;20071;-86
2021/11/30 02:32:39;;;;;;;19.92;13.30;;;0.10;1.00;;;;;;5054087;28;20525;-86
2021/11/30 02:35:05;;;;;;;19.80;13.38;;;0.10;1.00;;;;;;5051879;28;20021;-86
2021/11/30 02:37:38;;;;;;;22.15;14.05;;;0.10;1.00;;;;;;5051812;28;20070;-86
2021/11/30 02:40:05;;;;;;;21.60;13.32;;;0.10;1.00;;;;;;5054635;28;20045;-87
2021/11/30 02:42:31;;;;;;;18.20;12.13;;;0.10;1.00;;;;;;5053792;28;20033;-86
2021/11/30 02:44:56;;;;;;;18.30;11.95;;;0.10;1.00;;;;;;5053697;28;20025;-86
2021/11/30 02:47:24;;;;;;;19.05;12.50;;;0.00;1.00;;;;;;5049102;28;20032;-86
2021/11/30 02:49:50;;;;;;;20.85;13.95;;;0.10;1.00;;;;;;5053421;28;20025;-86
2021/11/30 02:52:19;;;;;;;20.92;13.93;;;0.00;1.00;;;;;;5059534;28;20120;-86
2021/11/30 02:54:48;;;;;;;21.42;12.75;;;0.00;1.00;;;;;;5056783;28;20431;-86
2021/11/30 02:57:17;;;;;;;20.33;12.35;;;0.00;1.00;;;;;;5057766;28;20067;-86
2021/11/30 02:59:46;;;;;;;20.08;13.50;;;0.00;1.00;;;;;;5057782;28;20016;-86
2021/11/30 03:02:21;;;;;;;16.77;12.57;;;0.00;1.00;;;;;;5056516;28;20097;-86
2021/11/30 03:04:50;;;;;;;19.73;12.35;;;0.00;1.00;;;;;;5049634;28;20032;-86
2021/11/30 03:07:28;;;;;;;19.38;13.52;;;0.00;1.00;;;;;;5066967;28;20442;-86
2021/11/30 03:09:54;;;;;;;19.13;12.77;;;-0.10;1.00;;;;;;5058943;28;20029;-86
2021/11/30 03:12:20;;;;;;;19.75;13.30;;;-0.10;1.00;;;;;;5057198;28;20523;-86
2021/11/30 03:14:46;;;;;;;19.02;13.25;;;0.00;1.00;;;;;;5057231;28;20100;-86
2021/11/30 03:17:13;;;;;;;18.08;12.32;;;0.00;1.00;;;;;;5056353;28;20123;-86
2021/11/30 03:19:39;;;;;;;20.00;12.88;;;0.00;1.00;;;;;;5053656;28;20412;-86
2021/11/30 03:22:05;;;;;;;17.52;12.07;;;0.00;1.00;;;;;;5059324;28;20029;-86
2021/11/30 03:24:31;;;;;;;19.70;12.05;;;0.00;1.00;;;;;;5057529;28;20500;-86
2021/11/30 03:26:57;;;;;;;17.42;12.00;;;-0.20;1.00;;;;;;5056998;28;20028;-86
2021/11/30 03:29:23;;;;;;;19.33;12.68;;;-0.20;1.00;;;;;;5050213;28;20037;-86
2021/11/30 03:31:52;;;;;;;17.05;12.13;;;-0.20;1.00;;;;;;5052834;28;20075;-86
2021/11/30 03:34:21;;;;;;;18.00;12.40;;;-0.20;1.00;;;;;;5066547;28;20032;-86
2021/11/30 03:36:50;;;;;;;20.75;12.70;;;-0.20;1.00;;;;;;5056139;28;20017;-86
2021/11/30 03:39:20;;;;;;;19.63;13.60;;;-0.30;1.00;;;;;;5056929;28;20025;-86
2021/11/30 03:41:48;;;;;;;19.65;13.07;;;-0.20;1.00;;;;;;5057336;28;20024;-85
2021/11/30 03:44:14;;;;;;;21.88;13.85;;;-0.20;1.00;;;;;;5054657;28;20030;-86
2021/11/30 03:46:40;;;;;;;22.10;14.05;;;-0.20;1.00;;;;;;5052932;28;20142;-86
2021/11/30 03:49:09;;;;;;;19.42;13.38;;;-0.20;1.00;;;;;;5057237;28;20397;-86
2021/11/30 03:51:34;;;;;;;21.08;14.35;;;-0.20;1.00;;;;;;5056986;28;20039;-86
2021/11/30 03:54:00;;;;;;;22.65;13.63;;;-0.30;1.00;;;;;;5056745;28;20396;-86
2021/11/30 03:56:26;;;;;;;20.73;13.73;;;-0.30;1.00;;;;;;5056647;28;20556;-86
2021/11/30 03:58:53;;;;;;;20.42;13.50;;;-0.20;1.00;;;;;;5052642;28;20383;-86
2021/11/30 04:01:19;;;;;;;21.33;13.50;;;-0.30;1.00;;;;;;5057494;28;20082;-86
2021/11/30 04:03:45;;;;;;;19.75;13.55;;;-0.20;1.00;;;;;;5056368;28;20025;-86
2021/11/30 04:06:10;;;;;;;24.75;14.35;;;-0.30;1.00;;;;;;5052498;28;20559;-86
2021/11/30 04:08:38;;;;;;;21.50;13.52;;;-0.30;1.00;;;;;;5056489;28;20028;-86
2021/11/30 04:11:07;;;;;;;20.77;13.98;;;-0.40;1.00;;;;;;5054527;28;20041;-86
2021/11/30 04:13:34;;;;;;;21.88;13.85;;;-0.30;1.00;;;;;;5053736;28;20048;-86
2021/11/30 04:15:59;;;;;;;22.30;14.13;;;-0.30;1.00;;;;;;5057988;28;20029;-86
2021/11/30 04:18:25;;;;;;;20.17;13.75;;;-0.40;1.00;;;;;;5056182;28;20028;-86
2021/11/30 04:20:52;;;;;;;25.85;15.38;;;-0.40;1.00;;;;;;5056630;28;20029;-86
2021/11/30 04:23:17;;;;;;;22.45;14.80;;;-0.50;1.00;;;;;;5054545;28;20024;-86
2021/11/30 04:25:43;;;;;;;25.58;16.17;;;-0.50;1.00;;;;;;5051326;28;20040;-86
2021/11/30 04:28:09;;;;;;;24.23;15.50;;;-0.50;1.00;;;;;;5057275;28;20017;-86
2021/11/30 04:30:34;;;;;;;23.05;15.57;;;-0.50;1.00;;;;;;5055794;28;20477;-86
2021/11/30 04:33:00;;;;;;;25.52;16.23;;;-0.50;1.00;;;;;;5056498;28;20027;-86
2021/11/30 04:35:26;;;;;;;25.77;16.92;;;-0.60;1.00;;;;;;5055755;28;20054;-86
2021/11/30 04:37:53;;;;;;;27.75;17.35;;;-0.50;1.00;;;;;;5052591;28;20224;-86
2021/11/30 04:40:19;;;;;;;28.38;17.50;;;-0.50;1.00;;;;;;5057037;28;20363;-86
2021/11/30 04:42:46;;;;;;;27.20;17.17;;;-0.50;1.00;;;;;;5056258;28;20104;-86
2021/11/30 04:45:30;;;;;;;28.52;17.50;;;-0.60;1.00;;;;;;5055273;28;20037;-86
2021/11/30 04:47:56;;;;;;;25.55;17.08;;;-0.60;1.00;;;;;;5056305;28;20078;-86
2021/11/30 04:50:27;;;;;;;28.27;16.88;;;-0.60;1.00;;;;;;5055647;28;20201;-86
2021/11/30 04:52:56;;;;;;;31.98;17.70;;;-0.60;1.00;;;;;;5049807;28;20041;-86
2021/11/30 04:55:25;;;;;;;35.47;16.83;;;-0.60;1.00;;;;;;5055679;28;20492;-87
2021/11/30 04:58:04;;;;;;;27.38;16.27;;;-0.60;1.00;;;;;;5057206;28;20420;-86
2021/11/30 05:00:31;;;;;;;28.77;16.17;;;-0.50;1.00;;;;;;5053957;28;20033;-86
2021/11/30 05:02:57;;;;;;;29.20;16.60;;;-0.60;1.00;;;;;;5054039;28;20478;-86
2021/11/30 05:05:22;;;;;;;30.67;17.38;;;-0.50;1.00;;;;;;5053572;28;20052;-86
2021/11/30 05:07:48;;;;;;;29.58;17.33;;;-0.50;1.00;;;;;;5051452;28;20052;-86
2021/11/30 05:10:17;;;;;;;29.60;17.50;;;-0.50;1.00;;;;;;5056041;28;20118;-86
2021/11/30 05:12:44;;;;;;;30.52;16.88;;;-0.50;1.00;;;;;;5054957;28;20120;-86
2021/11/30 05:15:10;;;;;;;29.98;16.95;;;-0.50;1.00;;;;;;5054913;28;20024;-86
2021/11/30 05:17:35;;;;;;;31.17;16.80;;;-0.60;1.00;;;;;;5054975;28;20024;-86
2021/11/30 05:20:05;;;;;;;28.00;16.92;;;-0.50;1.00;;;;;;5053108;28;20029;-86
2021/11/30 05:22:31;;;;;;;29.48;17.30;;;-0.60;1.00;;;;;;5052723;28;20052;-86
2021/11/30 05:24:57;;;;;;;28.92;17.05;;;-0.60;1.00;;;;;;5054544;28;20104;-86
2021/11/30 05:27:23;;;;;;;30.80;16.88;;;-0.60;1.00;;;;;;5055249;28;20560;-86
2021/11/30 05:29:49;;;;;;;29.20;16.45;;;-0.70;1.00;;;;;;5054498;28;20473;-86
2021/11/30 05:32:15;;;;;;;28.45;17.02;;;-0.70;1.00;;;;;;5054410;28;20044;-86
2021/11/30 05:34:41;;;;;;;33.20;17.30;;;-0.70;1.00;;;;;;5050924;28;20429;-86
2021/11/30 05:37:07;;;;;;;31.15;17.58;;;-0.80;1.00;;;;;;5056664;28;20138;-86
2021/11/30 05:39:32;;;;;;;34.55;17.38;;;-0.80;1.00;;;;;;5054551;28;20037;-86
2021/11/30 05:41:58;;;;;;;37.95;17.98;;;-0.70;1.00;;;;;;5053588;28;20063;-86
2021/11/30 05:44:24;;;;;;;38.05;18.88;;;-0.70;1.00;;;;;;5052790;28;20078;-86
2021/11/30 05:46:49;;;;;;;36.75;18.25;;;-0.70;1.00;;;;;;5050588;28;20029;-86
2021/11/30 05:49:16;;;;;;;31.88;16.10;;;-0.70;1.00;;;;;;5056256;28;20029;-86
2021/11/30 05:51:42;;;;;;;31.35;16.88;;;-0.70;1.00;;;;;;5052871;28;20405;-86
2021/11/30 05:54:08;;;;;;;29.52;15.35;;;-0.80;1.00;;;;;;5054329;28;20036;-86
2021/11/30 05:56:33;;;;;;;33.97;16.75;;;-0.60;1.00;;;;;;5054432;28;20511;-86
2021/11/30 05:58:59;;;;;;;32.67;16.10;;;-0.40;1.00;;;;;;5051834;28;20520;-86
2021/11/30 06:01:30;;;;;;;37.30;16.90;;;-0.40;1.00;;;;;;5053612;28;20049;-86
2021/11/30 06:03:58;;;;;;;38.00;17.30;;;-0.30;1.00;;;;;;5048051;28;20025;-86
2021/11/30 06:06:31;;;;;;;46.53;18.30;;;-0.40;1.00;;;;;;5054026;28;20115;-86
2021/11/30 06:08:57;;;;;;;53.05;18.05;;;-0.30;1.00;;;;;;5044571;28;20021;-86
2021/11/30 06:11:23;;;;;;;42.50;17.38;;;-0.30;1.00;;;;;;5054133;28;20039;-86
2021/11/30 06:13:49;;;;;;;50.20;18.52;;;-0.50;1.00;;;;;;5049837;28;20025;-86
2021/11/30 06:16:15;;;;;;;44.42;16.85;;;-0.40;1.00;;;;;;5055836;28;20124;-86
2021/11/30 06:18:41;;;;;;;48.80;18.17;;;-0.30;1.00;;;;;;5054249;28;20028;-87
2021/11/30 06:21:07;;;;;;;61.75;17.83;;;-0.30;1.00;;;;;;5052662;28;20490;-86
2021/11/30 06:23:32;;;;;;;57.95;19.60;;;-0.20;1.00;;;;;;5052410;28;20032;-86
2021/11/30 06:25:58;;;;;;;53.40;19.02;;;-0.20;1.00;;;;;;5050857;28;20112;-85
2021/11/30 06:28:24;;;;;;;49.70;18.05;;;-0.20;1.00;;;;;;5053376;28;20033;-87
2021/11/30 06:30:51;;;;;;;51.42;18.90;;;-0.20;1.00;;;;;;5054274;28;20025;-86
2021/11/30 06:33:17;;;;;;;47.20;17.92;;;-0.40;1.00;;;;;;5053884;28;20061;-86
2021/11/30 06:35:43;;;;;;;47.65;19.45;;;-0.30;1.00;;;;;;5053937;28;20056;-86
2021/11/30 06:38:08;;;;;;;55.88;20.08;;;-0.30;1.00;;;;;;5052365;28;20111;-86
2021/11/30 06:40:34;;;;;;;48.00;19.05;;;-0.30;1.00;;;;;;5051439;28;20083;-85
2021/11/30 06:43:00;;;;;;;65.13;16.60;;;-0.40;1.00;;;;;;5055611;28;20370;-86
2021/11/30 06:45:26;;;;;;;53.05;17.98;;;-0.40;1.00;;;;;;5053625;28;20029;-86
2021/11/30 06:47:51;;;;;;;58.35;19.45;;;-0.40;1.00;;;;;;5054339;28;20055;-86
2021/11/30 06:50:17;;;;;;;47.35;18.52;;;-0.50;1.00;;;;;;5053450;28;20033;-86
2021/11/30 06:52:43;;;;;;;46.22;17.65;;;-0.40;1.00;;;;;;5049634;28;20041;-86
2021/11/30 06:55:13;;;;;;;42.42;18.85;;;-0.40;1.00;;;;;;5055653;28;20021;-87
2021/11/30 06:57:39;;;;;;;45.38;19.15;;;-0.50;1.00;;;;;;5044342;28;20044;-86
2021/11/30 07:00:07;;;;;;;47.25;19.48;;;-0.60;1.00;;;;;;5051960;28;20021;-86
2021/11/30 07:02:35;;;;;;;39.33;18.67;;;-0.70;1.00;;;;;;5052140;28;20116;-86
2021/11/30 07:05:12;;;;;;;45.58;19.70;;;-0.70;1.00;;;;;;5051035;28;20124;-88
2021/11/30 07:07:51;;;;;;;46.03;19.85;;;-0.80;1.00;;;;;;5050256;28;20387;-88
2021/11/30 07:15:39;;;;;;;42.53;18.50;;;-0.40;1.00;;;;;;5053392;28;20025;-88
2021/11/30 07:18:04;;;;;;;61.58;20.48;;;-0.20;1.00;;;;;;5053511;28;20029;-86
2021/11/30 07:20:30;;;;;;;48.47;20.55;;;-0.20;1.00;;;;;;5053558;28;20025;-86
2021/11/30 07:22:57;;;;;;;42.42;18.98;;;-0.10;1.00;;;;;;5050407;28;20025;-93
2021/11/30 07:25:24;;;;;;;48.85;19.42;;;-0.10;1.00;;;;;;5054125;28;20028;-85
2021/11/30 07:27:50;;;;;;;44.00;19.80;;;-0.10;1.00;;;;;;5046789;28;20389;-86
2021/11/30 07:30:16;;;;;;;43.80;20.20;;;-0.10;1.00;;;;;;5053822;28;20052;-86
2021/11/30 07:32:41;;;;;;;38.45;17.63;;;-0.30;1.00;;;;;;5053260;28;20286;-86
2021/11/30 07:35:07;;;;;;;37.10;18.65;;;-0.40;1.00;;;;;;5055003;28;20020;-89
2021/11/30 07:37:34;;;;;;;41.10;19.75;;;-0.40;1.00;;;;;;5055662;28;20037;-86
2021/11/30 07:39:59;;;;;;;39.28;18.58;;;-0.30;1.00;;;;;;5056868;28;20032;-86
2021/11/30 07:42:30;;;;;;;43.40;18.83;;;-0.10;1.00;;;;;;5055399;28;20033;-87
2021/11/30 07:44:56;;;;;;;34.95;18.30;;;0.20;1.00;;;;;;5056803;28;20025;-87
2021/11/30 07:47:21;;;;;;;36.03;19.23;;;1.00;1.00;;;;;;5056906;28;20028;-86
2021/11/30 07:49:47;;;;;;;37.28;19.77;;;2.40;1.00;;;;;;5052843;28;20029;-86
2021/11/30 07:52:13;;;;;;;36.85;20.38;;;2.90;1.00;;;;;;5058788;28;20033;-87
2021/11/30 07:54:39;;;;;;;37.30;20.90;;;4.90;1.00;;;;;;5056421;28;20103;-86
2021/11/30 07:57:05;;;;;;;34.45;20.00;;;6.80;1.00;;;;;;5056796;28;20388;-86
2021/11/30 07:59:32;;;;;;;32.00;18.20;;;6.90;1.00;;;;;;5056513;28;20024;-87
2021/11/30 08:01:57;;;;;;;29.75;17.63;;;7.30;1.00;;;;;;5053658;28;20413;-87
2021/11/30 08:04:23;;;;;;;32.50;17.52;;;9.30;1.00;;;;;;5052493;28;20033;-87
2021/11/30 08:06:49;;;;;;;25.92;14.95;;;8.90;1.00;;;;;;5057133;28;20052;-86
2021/11/30 08:09:14;;;;;;;28.33;15.55;;;7.70;1.00;;;;;;5056187;28;20029;-87
2021/11/30 08:11:40;;;;;;;28.20;15.50;;;8.00;1.00;;;;;;5056361;28;20418;-87
2021/11/30 08:14:07;;;;;;;25.63;15.32;;;6.40;1.00;;;;;;5054503;28;20029;-87
2021/11/30 08:16:32;;;;;;;28.58;14.55;;;7.60;1.00;;;;;;5054707;28;20033;-87
2021/11/30 08:18:58;;;;;;;26.02;14.93;;;9.30;1.00;;;;;;5056239;28;20036;-87
2021/11/30 08:21:24;;;;;;;24.63;14.77;;;11.20;99.90;;;;;;5054504;28;20082;-87
2021/11/30 08:23:49;;;;;;;26.77;15.60;;;12.30;99.90;;;;;;5055823;28;20032;-87
2021/11/30 08:26:15;;;;;;;24.08;14.73;;;13.40;99.90;;;;;;5055435;28;20039;-87
2021/11/30 08:28:41;;;;;;;22.15;14.38;;;14.10;99.90;;;;;;5052357;28;20075;-87
2021/11/30 08:31:07;;;;;;;21.48;13.82;;;14.90;99.90;;;;;;5058341;28;20044;-87
2021/11/30 08:33:33;;;;;;;23.02;15.65;;;14.30;99.90;;;;;;5056079;28;20035;-87
2021/11/30 08:35:59;;;;;;;25.08;15.70;;;13.80;99.90;;;;;;5055885;28;20024;-87
2021/11/30 08:38:25;;;;;;;23.30;15.15;;;12.30;99.90;;;;;;5055716;28;20099;-87
2021/11/30 08:40:51;;;;;;;21.35;14.18;;;12.50;99.90;;;;;;5051997;28;20030;-86
2021/11/30 08:43:17;;;;;;;25.65;15.27;;;13.10;99.90;;;;;;5057392;28;20032;-87
2021/11/30 08:45:43;;;;;;;22.90;15.70;;;13.50;99.90;;;;;;5053220;28;20036;-86
2021/11/30 08:48:09;;;;;;;22.08;14.98;;;14.40;99.90;;;;;;5056019;28;20021;-87
2021/11/30 08:50:35;;;;;;;24.42;15.63;;;15.50;99.90;;;;;;5055793;28;20480;-87
2021/11/30 08:53:02;;;;;;;23.77;15.85;;;15.70;99.90;;;;;;5052541;28;20041;-88
2021/11/30 08:55:28;;;;;;;19.13;13.77;;;16.00;99.90;;;;;;5054780;28;20037;-88
2021/11/30 08:57:54;;;;;;;19.27;13.38;;;16.00;99.90;;;;;;5055217;28;20087;-88
2021/11/30 09:00:25;;;;;;;21.70;14.45;;;16.00;99.90;;;;;;5053969;28;20108;-87
2021/11/30 09:02:52;;;;;;;19.70;14.63;;;16.50;99.90;;;;;;5045399;28;20025;-87
2021/11/30 09:05:21;;;;;;;22.23;14.98;;;17.40;99.90;;;;;;5054892;28;20053;-87
2021/11/30 09:07:47;;;;;;;23.23;15.55;;;18.00;99.90;;;;;;5034830;28;20487;-87
2021/11/30 09:10:13;;;;;;;20.67;15.25;;;17.70;99.90;;;;;;5057217;28;20489;-87
2021/11/30 09:12:39;;;;;;;19.70;14.18;;;17.30;99.90;;;;;;5045535;28;20051;-86
2021/11/30 09:15:06;;;;;;;15.73;12.55;;;18.10;99.90;;;;;;5055200;28;20107;-86
2021/11/30 09:17:32;;;;;;;17.90;13.82;;;19.70;99.90;;;;;;5054875;28;20039;-87
2021/11/30 09:19:58;;;;;;;16.85;13.55;;;18.80;99.90;;;;;;5052027;28;20029;-87
2021/11/30 09:22:25;;;;;;;17.35;12.20;;;17.80;99.90;;;;;;5055305;28;20039;-87
2021/11/30 09:24:51;;;;;;;16.23;12.77;;;18.70;99.90;;;;;;5055926;28;20029;-87
2021/11/30 09:27:17;;;;;;;17.45;13.02;;;17.70;99.90;;;;;;5054959;28;20389;-87
2021/11/30 09:29:43;;;;;;;14.43;11.77;;;18.70;99.90;;;;;;5054889;28;20477;-87
2021/11/30 09:32:10;;;;;;;15.18;12.13;;;18.40;99.90;;;;;;5052976;28;20051;-87
2021/11/30 09:34:36;;;;;;;15.57;11.43;;;18.20;99.90;;;;;;5052682;28;20370;-87
2021/11/30 09:37:01;;;;;;;13.88;11.38;;;18.40;99.90;;;;;;5054776;28;20040;-86
2021/11/30 09:39:27;;;;;;;15.98;12.07;;;18.80;99.90;;;;;;5053186;28;20497;-87
2021/11/30 09:41:53;;;;;;;13.30;10.55;;;17.90;99.90;;;;;;5054610;28;20037;-85
2021/11/30 09:44:19;;;;;;;14.52;11.63;;;18.40;99.90;;;;;;5054606;28;20103;-86
2021/11/30 09:46:45;;;;;;;13.75;11.55;;;19.60;99.90;;;;;;5048432;28;20464;-86
2021/11/30 09:49:14;;;;;;;12.68;10.05;;;19.30;99.90;;;;;;5057621;28;20025;-89
2021/11/30 09:51:40;;;;;;;15.77;11.70;;;18.90;99.90;;;;;;5054977;28;20029;-87
2021/11/30 09:54:06;;;;;;;12.88;9.52;;;19.10;99.90;;;;;;5054450;28;20017;-87
2021/11/30 09:56:31;;;;;;;14.40;11.57;;;18.90;99.90;;;;;;5046057;28;20511;-87
2021/11/30 09:58:57;;;;;;;16.63;12.15;;;20.20;99.90;;;;;;5051302;28;20024;-87
2021/11/30 10:01:23;;;;;;;16.35;12.70;;;21.80;99.90;;;;;;5054588;28;20033;-87
2021/11/30 10:03:48;;;;;;;15.25;12.55;;;18.10;99.90;;;;;;5054961;28;20036;-87
2021/11/30 10:06:14;;;;;;;16.85;12.65;;;16.20;99.90;;;;;;5054203;28;20045;-87
2021/11/30 10:08:48;;;;;;;18.58;13.38;;;18.20;99.90;;;;;;5054346;28;20111;-87
2021/11/30 10:11:29;;;;;;;15.95;12.73;;;20.00;99.90;;;;;;5053482;28;20024;-86
2021/11/30 10:14:35;;;;;;;14.60;12.32;;;15.70;99.90;;;;;;5034974;28;20021;-87
2021/11/30 10:17:17;;;;;;;14.02;12.13;;;19.40;99.90;;;;;;4956086;28;20063;-87
2021/11/30 10:19:51;;;;;;;12.68;11.02;;;21.50;99.90;;;;;;4984286;28;20416;-86
2021/11/30 10:22:38;;;;;;;14.55;11.27;;;23.00;99.90;;;;;;4990957;28;20426;-86
2021/11/30 10:25:17;;;;;;;13.57;11.50;;;19.90;99.90;;;;;;4987687;28;20118;-86
2021/11/30 10:27:56;;;;;;;14.43;11.90;;;20.20;99.90;;;;;;4984246;28;20089;-86
2021/11/30 10:30:24;;;;;;;14.65;12.25;;;17.00;99.90;;;;;;4984113;28;20494;-85
2021/11/30 10:32:51;;;;;;;14.25;12.35;;;15.00;99.90;;;;;;4983938;28;20065;-85
2021/11/30 10:35:21;;;;;;;14.13;12.63;;;14.80;99.90;;;;;;4984003;28;20045;-86
2021/11/30 10:37:47;;;;;;;12.50;11.20;;;14.10;99.90;;;;;;4951811;28;20431;-86
2021/11/30 10:40:26;;;;;;;12.30;10.38;;;12.90;99.90;;;;;;4990143;28;20038;-85
2021/11/30 10:43:01;;;;;;;13.50;11.68;;;12.80;99.90;;;;;;4986556;28;20153;-85
2021/11/30 10:45:38;;;;;;;13.48;10.57;;;12.30;99.90;;;;;;4983943;28;20066;-85
2021/11/30 10:48:18;;;;;;;11.75;9.27;;;11.40;99.90;;;;;;4983082;28;20030;-87
2021/11/30 10:50:50;;;;;;;11.05;9.35;;;11.00;99.90;;;;;;5013523;28;20056;-85
2021/11/30 10:53:19;;;;;;;11.73;9.23;;;12.00;99.90;;;;;;5051636;28;20041;-86
2021/11/30 10:55:51;;;;;;;9.43;7.82;;;12.70;99.90;;;;;;5047145;28;20441;-86
2021/11/30 10:58:18;;;;;;;8.82;7.00;;;13.90;99.90;;;;;;5063186;28;20412;-85
2021/11/30 11:00:45;;;;;;;8.80;6.22;;;14.30;99.90;;;;;;5052146;28;20029;-84
2021/11/30 11:03:18;;;;;;;7.45;5.90;;;13.80;99.90;;;;;;5053531;28;20047;-84
2021/11/30 11:06:24;;;;;;;8.85;5.88;;;15.50;99.90;;;;;;5053307;28;20110;-84
2021/11/30 11:08:43;;;;;;;5.90;5.20;;;14.90;99.90;;;;;;5054664;28;20036;-84
2021/11/30 11:11:09;;;;;;;7.00;5.45;;;12.50;99.90;;;;;;5055680;28;20037;-88
2021/11/30 11:13:37;;;;;;;7.50;5.50;;;15.20;99.90;;;;;;5054564;28;20017;-88
2021/11/30 11:16:06;;;;;;;7.18;5.32;;;20.60;99.90;;;;;;5059368;28;20021;-88
2021/11/30 11:18:34;;;;;;;7.93;5.78;;;20.30;99.90;;;;;;5057019;28;20070;-89
2021/11/30 11:21:23;;;;;;;8.25;5.95;;;18.20;99.90;;;;;;5057342;28;20028;-90
2021/11/30 11:23:57;;;;;;;7.40;6.28;;;17.80;99.90;;;;;;5057753;28;20025;-84
2021/11/30 11:26:30;;;;;;;6.15;5.47;;;16.40;99.90;;;;;;5057240;28;20468;-87
2021/11/30 11:28:58;;;;;;;6.65;5.00;;;15.10;99.90;;;;;;5050496;28;20120;-89
2021/11/30 11:31:26;;;;;;;7.95;6.10;;;13.50;99.90;;;;;;5057202;28;20041;-86
2021/11/30 11:33:55;;;;;;;7.47;6.20;;;13.60;99.90;;;;;;5058022;28;20078;-87
2021/11/30 11:36:21;;;;;;;7.38;6.00;;;12.50;99.90;;;;;;5055516;28;20033;-86
2021/11/30 11:38:47;;;;;;;7.75;6.38;;;12.50;99.90;;;;;;5056706;28;20033;-85
2021/11/30 11:41:14;;;;;;;7.20;5.80;;;11.50;99.90;;;;;;5056191;28;20111;-87
2021/11/30 11:43:40;;;;;;;7.47;6.10;;;11.70;99.90;;;;;;5052995;28;20033;-85
2021/11/30 11:46:11;;;;;;;9.27;6.95;;;11.50;99.90;;;;;;5051648;28;20044;-89
2021/11/30 11:48:38;;;;;;;9.68;6.63;;;11.50;99.90;;;;;;5055163;28;20033;-92
2021/11/30 11:51:05;;;;;;;9.20;6.88;;;12.70;99.90;;;;;;5062444;28;20059;-89
2021/11/30 11:53:37;;;;;;;7.72;6.35;;;11.90;99.90;;;;;;5067242;28;20057;-85
2021/11/30 11:56:10;;;;;;;7.22;6.32;;;11.40;99.90;;;;;;5054546;28;20025;-86
2021/11/30 11:58:36;;;;;;;10.95;6.18;;;10.90;99.90;;;;;;5053828;28;20024;-87
2021/11/30 12:01:03;;;;;;;8.43;6.15;;;10.20;99.90;;;;;;5058136;28;20032;-84
2021/11/30 12:04:04;;;;;;;9.15;6.00;;;9.80;99.90;;;;;;5056429;28;20032;-85
2021/11/30 12:06:35;;;;;;;7.43;5.85;;;9.40;99.90;;;;;;4992216;28;20129;-86
2021/11/30 12:09:10;;;;;;;7.28;5.47;;;9.50;99.90;;;;;;4994866;28;20050;-87
2021/11/30 12:11:59;;;;;;;7.53;5.05;;;9.30;99.90;;;;;;4993576;28;20048;-87
2021/11/30 12:14:34;;;;;;;7.97;5.68;;;8.90;99.90;;;;;;4987504;28;20045;-87
2021/11/30 12:17:01;;;;;;;6.72;5.63;;;8.80;99.90;;;;;;4991897;28;20450;-87
2021/11/30 12:19:29;;;;;;;6.85;5.50;;;8.60;99.90;;;;;;4993888;28;20054;-87
2021/11/30 12:21:55;;;;;;;10.00;6.28;;;9.00;99.90;;;;;;4996002;28;20042;-87
2021/11/30 12:24:37;;;;;;;6.85;5.43;;;8.80;99.90;;;;;;4994895;28;20030;-87
2021/11/30 12:27:22;;;;;;;8.98;6.22;;;9.10;99.90;;;;;;4994627;28;20041;-86
2021/11/30 12:29:49;;;;;;;8.88;5.95;;;8.90;99.90;;;;;;4993761;28;20026;-87
2021/11/30 12:32:32;;;;;;;10.30;5.93;;;9.10;99.90;;;;;;4993918;28;20037;-87
2021/11/30 12:35:04;;;;;;;6.97;5.53;;;9.40;99.90;;;;;;4977534;28;20037;-87
2021/11/30 12:37:32;;;;;;;7.60;5.50;;;9.40;99.90;;;;;;4977481;28;20033;-87
2021/11/30 12:40:10;;;;;;;6.57;5.28;;;9.40;99.90;;;;;;5013864;28;20055;-87
2021/11/30 12:42:44;;;;;;;6.70;5.35;;;9.70;99.90;;;;;;5055698;28;20090;-87
2021/11/30 12:45:13;;;;;;;6.70;4.63;;;9.90;99.90;;;;;;5055515;28;20071;-87
2021/11/30 12:47:39;;;;;;;7.22;4.47;;;10.50;99.90;;;;;;5056149;28;20027;-87
2021/11/30 12:50:23;;;;;;;5.53;4.13;;;10.40;99.90;;;;;;5052065;28;20048;-87
2021/11/30 12:53:00;;;;;;;12.52;6.25;;;10.80;99.90;;;;;;5034215;28;20025;-87
2021/11/30 12:55:25;;;;;;;4.72;3.25;;;11.20;99.90;;;;;;5065692;28;20484;-87
2021/11/30 12:57:51;;;;;;;7.50;4.68;;;10.30;99.90;;;;;;5056259;28;20032;-87